sensor_id;sensor_type;location;lat;lon;timestamp;temperature;humidity
64209;DHT22;50527;52.414;13.226;2023-04-25T00:01:29;9.60;85.20
64209;DHT22;50527;52.414;13.226;2023-04-25T00:03:54;9.50;84.50
64209;DHT22;50527;52.414;13.226;2023-04-25T00:06:20;9.50;84.80
64209;DHT22;50527;52.414;13.226;2023-04-25T00:08:45;9.50;85.30
64209;DHT22;50527;52.414;13.226;2023-04-25T00:11:11;9.50;84.50
64209;DHT22;50527;52.414;13.226;2023-04-25T00:13:36;9.50;84.30
64209;DHT22;50527;52.414;13.226;2023-04-25T00:16:02;9.50;85.10
64209;DHT22;50527;52.414;13.226;2023-04-25T00:18:27;9.50;84.90
64209;DHT22;50527;52.414;13.226;2023-04-25T00:20:54;9.60;84.40
64209;DHT22;50527;52.414;13.226;2023-04-25T00:23:20;9.60;84.40
64209;DHT22;50527;52.414;13.226;2023-04-25T00:25:48;9.70;84.60
64209;DHT22;50527;52.414;13.226;2023-04-25T00:28:14;9.70;85.10
64209;DHT22;50527;52.414;13.226;2023-04-25T00:30:41;9.70;84.90
64209;DHT22;50527;52.414;13.226;2023-04-25T00:33:07;9.70;84.10
64209;DHT22;50527;52.414;13.226;2023-04-25T00:35:32;9.70;85.90
64209;DHT22;50527;52.414;13.226;2023-04-25T00:37:58;9.70;85.90
64209;DHT22;50527;52.414;13.226;2023-04-25T00:40:24;9.80;84.80
64209;DHT22;50527;52.414;13.226;2023-04-25T00:42:51;9.80;85.00
64209;DHT22;50527;52.414;13.226;2023-04-25T00:45:17;9.80;84.70
64209;DHT22;50527;52.414;13.226;2023-04-25T00:47:43;9.80;84.70
64209;DHT22;50527;52.414;13.226;2023-04-25T00:50:18;9.80;84.70
64209;DHT22;50527;52.414;13.226;2023-04-25T00:52:44;9.80;85.10
64209;DHT22;50527;52.414;13.226;2023-04-25T00:55:11;9.80;85.70
64209;DHT22;50527;52.414;13.226;2023-04-25T00:57:37;9.70;86.00
64209;DHT22;50527;52.414;13.226;2023-04-25T01:00:05;9.80;85.60
64209;DHT22;50527;52.414;13.226;2023-04-25T01:02:32;9.80;85.10
64209;DHT22;50527;52.414;13.226;2023-04-25T01:04:58;9.80;85.50
64209;DHT22;50527;52.414;13.226;2023-04-25T01:07:24;9.80;85.60
64209;DHT22;50527;52.414;13.226;2023-04-25T01:09:51;9.80;85.30
64209;DHT22;50527;52.414;13.226;2023-04-25T01:12:17;9.70;85.20
64209;DHT22;50527;52.414;13.226;2023-04-25T01:14:43;9.80;85.50
64209;DHT22;50527;52.414;13.226;2023-04-25T01:17:09;9.70;85.90
64209;DHT22;50527;52.414;13.226;2023-04-25T01:19:35;9.70;84.90
64209;DHT22;50527;52.414;13.226;2023-04-25T01:22:00;9.80;85.70
64209;DHT22;50527;52.414;13.226;2023-04-25T01:24:26;9.80;85.70
64209;DHT22;50527;52.414;13.226;2023-04-25T01:26:52;9.80;84.90
64209;DHT22;50527;52.414;13.226;2023-04-25T01:29:19;9.80;85.50
64209;DHT22;50527;52.414;13.226;2023-04-25T01:31:46;9.80;84.90
64209;DHT22;50527;52.414;13.226;2023-04-25T01:34:12;9.80;84.90
64209;DHT22;50527;52.414;13.226;2023-04-25T01:36:38;9.70;85.50
64209;DHT22;50527;52.414;13.226;2023-04-25T01:39:03;9.70;84.10
64209;DHT22;50527;52.414;13.226;2023-04-25T01:41:29;9.80;85.50
64209;DHT22;50527;52.414;13.226;2023-04-25T01:43:55;9.70;84.70
64209;DHT22;50527;52.414;13.226;2023-04-25T01:46:20;9.60;85.30
64209;DHT22;50527;52.414;13.226;2023-04-25T01:48:46;9.60;86.20
64209;DHT22;50527;52.414;13.226;2023-04-25T01:51:12;9.60;85.80
64209;DHT22;50527;52.414;13.226;2023-04-25T01:53:38;9.60;85.60
64209;DHT22;50527;52.414;13.226;2023-04-25T01:56:05;9.60;85.60
64209;DHT22;50527;52.414;13.226;2023-04-25T01:58:30;9.60;86.50
64209;DHT22;50527;52.414;13.226;2023-04-25T02:00:56;9.70;86.20
64209;DHT22;50527;52.414;13.226;2023-04-25T02:03:21;9.60;85.60
64209;DHT22;50527;52.414;13.226;2023-04-25T02:05:47;9.70;85.50
64209;DHT22;50527;52.414;13.226;2023-04-25T02:08:12;9.70;84.90
64209;DHT22;50527;52.414;13.226;2023-04-25T02:10:38;9.60;85.30
64209;DHT22;50527;52.414;13.226;2023-04-25T02:13:03;9.70;85.00
64209;DHT22;50527;52.414;13.226;2023-04-25T02:15:30;9.70;84.90
64209;DHT22;50527;52.414;13.226;2023-04-25T02:17:56;9.70;85.50
64209;DHT22;50527;52.414;13.226;2023-04-25T02:20:23;9.60;84.90
64209;DHT22;50527;52.414;13.226;2023-04-25T02:22:48;9.60;85.10
64209;DHT22;50527;52.414;13.226;2023-04-25T02:25:14;9.60;85.90
64209;DHT22;50527;52.414;13.226;2023-04-25T02:27:41;9.50;86.10
64209;DHT22;50527;52.414;13.226;2023-04-25T02:30:07;9.50;86.40
64209;DHT22;50527;52.414;13.226;2023-04-25T02:32:33;9.60;85.30
64209;DHT22;50527;52.414;13.226;2023-04-25T02:35:02;9.60;85.00
64209;DHT22;50527;52.414;13.226;2023-04-25T02:37:32;9.50;86.00
64209;DHT22;50527;52.414;13.226;2023-04-25T02:39:57;9.60;85.60
64209;DHT22;50527;52.414;13.226;2023-04-25T02:42:23;9.50;86.20
64209;DHT22;50527;52.414;13.226;2023-04-25T02:44:48;9.50;85.60
64209;DHT22;50527;52.414;13.226;2023-04-25T02:47:13;9.50;85.70
64209;DHT22;50527;52.414;13.226;2023-04-25T02:49:39;9.40;85.70
64209;DHT22;50527;52.414;13.226;2023-04-25T02:52:04;9.40;86.90
64209;DHT22;50527;52.414;13.226;2023-04-25T02:54:30;9.40;86.30
64209;DHT22;50527;52.414;13.226;2023-04-25T02:56:56;9.40;86.30
64209;DHT22;50527;52.414;13.226;2023-04-25T02:59:21;9.40;87.30
64209;DHT22;50527;52.414;13.226;2023-04-25T03:01:47;9.40;86.70
64209;DHT22;50527;52.414;13.226;2023-04-25T03:04:12;9.30;86.20
64209;DHT22;50527;52.414;13.226;2023-04-25T03:06:38;9.30;88.00
64209;DHT22;50527;52.414;13.226;2023-04-25T03:09:03;9.40;87.30
64209;DHT22;50527;52.414;13.226;2023-04-25T03:11:29;9.40;87.90
64209;DHT22;50527;52.414;13.226;2023-04-25T03:13:54;9.40;87.20
64209;DHT22;50527;52.414;13.226;2023-04-25T03:16:20;9.40;87.00
64209;DHT22;50527;52.414;13.226;2023-04-25T03:18:46;9.50;87.00
64209;DHT22;50527;52.414;13.226;2023-04-25T03:21:11;9.40;87.00
64209;DHT22;50527;52.414;13.226;2023-04-25T03:23:37;9.50;86.00
64209;DHT22;50527;52.414;13.226;2023-04-25T03:26:02;9.40;86.00
64209;DHT22;50527;52.414;13.226;2023-04-25T03:28:28;9.40;86.20
64209;DHT22;50527;52.414;13.226;2023-04-25T03:30:53;9.50;85.80
64209;DHT22;50527;52.414;13.226;2023-04-25T03:33:19;9.40;86.80
64209;DHT22;50527;52.414;13.226;2023-04-25T03:35:45;9.40;86.50
64209;DHT22;50527;52.414;13.226;2023-04-25T03:38:11;9.40;87.20
64209;DHT22;50527;52.414;13.226;2023-04-25T03:40:36;9.40;86.90
64209;DHT22;50527;52.414;13.226;2023-04-25T03:43:01;9.40;86.90
64209;DHT22;50527;52.414;13.226;2023-04-25T03:45:27;9.40;87.40
64209;DHT22;50527;52.414;13.226;2023-04-25T03:47:52;9.40;86.70
64209;DHT22;50527;52.414;13.226;2023-04-25T03:50:18;9.30;87.30
64209;DHT22;50527;52.414;13.226;2023-04-25T03:52:43;9.30;88.00
64209;DHT22;50527;52.414;13.226;2023-04-25T03:55:09;9.30;87.30
64209;DHT22;50527;52.414;13.226;2023-04-25T03:57:35;9.40;86.90
64209;DHT22;50527;52.414;13.226;2023-04-25T04:00:00;9.40;87.60
64209;DHT22;50527;52.414;13.226;2023-04-25T04:02:26;9.30;87.70
64209;DHT22;50527;52.414;13.226;2023-04-25T04:04:51;9.30;87.80
64209;DHT22;50527;52.414;13.226;2023-04-25T04:07:17;9.20;88.80
64209;DHT22;50527;52.414;13.226;2023-04-25T04:09:42;9.20;89.20
64209;DHT22;50527;52.414;13.226;2023-04-25T04:12:08;9.10;89.10
64209;DHT22;50527;52.414;13.226;2023-04-25T04:14:33;9.20;89.40
64209;DHT22;50527;52.414;13.226;2023-04-25T04:16:59;9.20;90.00
64209;DHT22;50527;52.414;13.226;2023-04-25T04:19:25;9.20;89.10
64209;DHT22;50527;52.414;13.226;2023-04-25T04:21:51;9.20;89.90
64209;DHT22;50527;52.414;13.226;2023-04-25T04:24:16;9.20;90.30
64209;DHT22;50527;52.414;13.226;2023-04-25T04:26:42;9.20;90.40
64209;DHT22;50527;52.414;13.226;2023-04-25T04:29:10;9.20;90.30
64209;DHT22;50527;52.414;13.226;2023-04-25T04:31:36;9.20;89.50
64209;DHT22;50527;52.414;13.226;2023-04-25T04:34:02;9.20;90.10
64209;DHT22;50527;52.414;13.226;2023-04-25T04:36:29;9.30;90.20
64209;DHT22;50527;52.414;13.226;2023-04-25T04:38:54;9.30;89.80
64209;DHT22;50527;52.414;13.226;2023-04-25T04:41:21;9.30;90.10
64209;DHT22;50527;52.414;13.226;2023-04-25T04:43:47;9.30;89.90
64209;DHT22;50527;52.414;13.226;2023-04-25T04:46:12;9.30;90.70
64209;DHT22;50527;52.414;13.226;2023-04-25T04:48:38;9.40;90.00
64209;DHT22;50527;52.414;13.226;2023-04-25T04:51:05;9.40;89.40
64209;DHT22;50527;52.414;13.226;2023-04-25T04:53:31;9.40;89.70
64209;DHT22;50527;52.414;13.226;2023-04-25T04:55:56;9.40;89.70
64209;DHT22;50527;52.414;13.226;2023-04-25T04:58:22;9.40;89.20
64209;DHT22;50527;52.414;13.226;2023-04-25T05:00:48;9.40;89.80
64209;DHT22;50527;52.414;13.226;2023-04-25T05:03:13;9.40;89.60
64209;DHT22;50527;52.414;13.226;2023-04-25T05:05:39;9.50;89.30
64209;DHT22;50527;52.414;13.226;2023-04-25T05:08:05;9.50;89.40
64209;DHT22;50527;52.414;13.226;2023-04-25T05:10:31;9.50;89.30
64209;DHT22;50527;52.414;13.226;2023-04-25T05:12:56;9.60;88.60
64209;DHT22;50527;52.414;13.226;2023-04-25T05:15:22;9.60;88.90
64209;DHT22;50527;52.414;13.226;2023-04-25T05:17:47;9.50;89.00
64209;DHT22;50527;52.414;13.226;2023-04-25T05:20:13;9.60;89.50
64209;DHT22;50527;52.414;13.226;2023-04-25T05:22:39;9.60;89.80
64209;DHT22;50527;52.414;13.226;2023-04-25T05:25:07;9.50;90.00
64209;DHT22;50527;52.414;13.226;2023-04-25T05:27:33;9.50;90.40
64209;DHT22;50527;52.414;13.226;2023-04-25T05:29:58;9.50;90.30
64209;DHT22;50527;52.414;13.226;2023-04-25T05:32:24;9.50;90.40
64209;DHT22;50527;52.414;13.226;2023-04-25T05:34:50;9.50;90.50
64209;DHT22;50527;52.414;13.226;2023-04-25T05:37:16;9.60;90.50
64209;DHT22;50527;52.414;13.226;2023-04-25T05:39:42;9.50;90.30
64209;DHT22;50527;52.414;13.226;2023-04-25T05:42:07;9.60;90.40
64209;DHT22;50527;52.414;13.226;2023-04-25T05:44:33;9.70;89.80
64209;DHT22;50527;52.414;13.226;2023-04-25T05:46:58;9.70;90.30
64209;DHT22;50527;52.414;13.226;2023-04-25T05:49:24;9.60;90.50
64209;DHT22;50527;52.414;13.226;2023-04-25T05:51:50;9.80;90.70
64209;DHT22;50527;52.414;13.226;2023-04-25T05:54:15;9.90;90.10
64209;DHT22;50527;52.414;13.226;2023-04-25T05:56:41;9.80;90.10
64209;DHT22;50527;52.414;13.226;2023-04-25T05:59:06;9.90;89.80
64209;DHT22;50527;52.414;13.226;2023-04-25T06:01:32;9.80;88.10
64209;DHT22;50527;52.414;13.226;2023-04-25T06:03:57;9.80;89.20
64209;DHT22;50527;52.414;13.226;2023-04-25T06:06:23;9.90;89.70
64209;DHT22;50527;52.414;13.226;2023-04-25T06:08:48;9.90;89.50
64209;DHT22;50527;52.414;13.226;2023-04-25T06:11:14;9.90;89.40
64209;DHT22;50527;52.414;13.226;2023-04-25T06:13:39;10.00;88.60
64209;DHT22;50527;52.414;13.226;2023-04-25T06:16:05;10.00;88.30
64209;DHT22;50527;52.414;13.226;2023-04-25T06:18:31;10.00;88.60
64209;DHT22;50527;52.414;13.226;2023-04-25T06:20:56;10.00;89.00
64209;DHT22;50527;52.414;13.226;2023-04-25T06:23:22;10.00;88.50
64209;DHT22;50527;52.414;13.226;2023-04-25T06:25:47;10.00;89.20
64209;DHT22;50527;52.414;13.226;2023-04-25T06:28:12;10.00;88.70
64209;DHT22;50527;52.414;13.226;2023-04-25T06:30:38;10.00;88.70
64209;DHT22;50527;52.414;13.226;2023-04-25T06:33:03;10.00;88.60
64209;DHT22;50527;52.414;13.226;2023-04-25T06:35:29;10.00;89.20
64209;DHT22;50527;52.414;13.226;2023-04-25T06:37:55;10.00;89.00
64209;DHT22;50527;52.414;13.226;2023-04-25T06:40:20;10.00;87.90
64209;DHT22;50527;52.414;13.226;2023-04-25T06:42:45;10.00;88.30
64209;DHT22;50527;52.414;13.226;2023-04-25T06:45:11;10.00;88.60
64209;DHT22;50527;52.414;13.226;2023-04-25T06:47:37;10.00;89.30
64209;DHT22;50527;52.414;13.226;2023-04-25T06:50:02;10.00;88.40
64209;DHT22;50527;52.414;13.226;2023-04-25T06:52:28;10.00;88.80
64209;DHT22;50527;52.414;13.226;2023-04-25T06:54:53;9.90;89.00
64209;DHT22;50527;52.414;13.226;2023-04-25T06:57:19;9.90;89.10
64209;DHT22;50527;52.414;13.226;2023-04-25T06:59:44;9.80;89.50
64209;DHT22;50527;52.414;13.226;2023-04-25T07:02:10;9.90;90.00
64209;DHT22;50527;52.414;13.226;2023-04-25T07:04:35;9.90;90.40
64209;DHT22;50527;52.414;13.226;2023-04-25T07:07:01;9.90;90.50
64209;DHT22;50527;52.414;13.226;2023-04-25T07:09:28;9.90;90.70
64209;DHT22;50527;52.414;13.226;2023-04-25T07:11:54;9.90;91.80
64209;DHT22;50527;52.414;13.226;2023-04-25T07:14:19;9.80;91.60
64209;DHT22;50527;52.414;13.226;2023-04-25T07:16:45;9.90;91.90
64209;DHT22;50527;52.414;13.226;2023-04-25T07:19:10;9.70;92.60
64209;DHT22;50527;52.414;13.226;2023-04-25T07:21:36;9.70;92.90
64209;DHT22;50527;52.414;13.226;2023-04-25T07:24:02;9.70;92.80
64209;DHT22;50527;52.414;13.226;2023-04-25T07:26:27;9.70;92.50
64209;DHT22;50527;52.414;13.226;2023-04-25T07:28:53;9.60;92.00
64209;DHT22;50527;52.414;13.226;2023-04-25T07:31:19;9.60;91.60
64209;DHT22;50527;52.414;13.226;2023-04-25T07:33:45;9.60;91.50
64209;DHT22;50527;52.414;13.226;2023-04-25T07:36:11;9.70;91.40
64209;DHT22;50527;52.414;13.226;2023-04-25T07:38:37;9.70;91.00
64209;DHT22;50527;52.414;13.226;2023-04-25T07:41:03;9.60;90.60
64209;DHT22;50527;52.414;13.226;2023-04-25T07:43:28;9.60;91.10
64209;DHT22;50527;52.414;13.226;2023-04-25T07:45:54;9.60;91.00
64209;DHT22;50527;52.414;13.226;2023-04-25T07:48:19;9.50;90.80
64209;DHT22;50527;52.414;13.226;2023-04-25T07:50:45;9.60;91.30
64209;DHT22;50527;52.414;13.226;2023-04-25T07:53:11;9.60;91.10
64209;DHT22;50527;52.414;13.226;2023-04-25T07:55:36;9.70;90.60
64209;DHT22;50527;52.414;13.226;2023-04-25T07:58:08;9.70;90.60
64209;DHT22;50527;52.414;13.226;2023-04-25T08:00:34;9.90;90.30
64209;DHT22;50527;52.414;13.226;2023-04-25T08:02:59;10.00;90.30
64209;DHT22;50527;52.414;13.226;2023-04-25T08:05:25;10.20;88.50
64209;DHT22;50527;52.414;13.226;2023-04-25T08:07:50;10.40;87.30
64209;DHT22;50527;52.414;13.226;2023-04-25T08:10:16;10.40;86.50
64209;DHT22;50527;52.414;13.226;2023-04-25T08:12:41;10.50;86.40
64209;DHT22;50527;52.414;13.226;2023-04-25T08:15:08;10.50;85.30
64209;DHT22;50527;52.414;13.226;2023-04-25T08:17:33;10.50;84.50
64209;DHT22;50527;52.414;13.226;2023-04-25T08:19:59;10.60;84.70
64209;DHT22;50527;52.414;13.226;2023-04-25T08:22:24;10.80;80.30
64209;DHT22;50527;52.414;13.226;2023-04-25T08:24:50;11.00;77.80
64209;DHT22;50527;52.414;13.226;2023-04-25T08:27:15;11.20;76.80
64209;DHT22;50527;52.414;13.226;2023-04-25T08:29:41;11.30;73.40
64209;DHT22;50527;52.414;13.226;2023-04-25T08:32:07;11.40;73.60
64209;DHT22;50527;52.414;13.226;2023-04-25T08:34:32;11.50;70.50
64209;DHT22;50527;52.414;13.226;2023-04-25T08:36:58;11.50;72.30
64209;DHT22;50527;52.414;13.226;2023-04-25T08:39:23;11.40;68.60
64209;DHT22;50527;52.414;13.226;2023-04-25T08:41:49;11.30;70.40
64209;DHT22;50527;52.414;13.226;2023-04-25T08:44:16;11.20;66.30
64209;DHT22;50527;52.414;13.226;2023-04-25T08:46:41;11.30;66.20
64209;DHT22;50527;52.414;13.226;2023-04-25T08:49:08;11.30;63.50
64209;DHT22;50527;52.414;13.226;2023-04-25T08:51:45;11.80;63.20
64209;DHT22;50527;52.414;13.226;2023-04-25T08:54:16;12.60;61.50
64209;DHT22;50527;52.414;13.226;2023-04-25T08:56:47;13.00;58.10
64209;DHT22;50527;52.414;13.226;2023-04-25T08:59:17;13.50;56.90
64209;DHT22;50527;52.414;13.226;2023-04-25T09:01:42;13.90;54.20
64209;DHT22;50527;52.414;13.226;2023-04-25T09:04:08;14.20;54.70
64209;DHT22;50527;52.414;13.226;2023-04-25T09:06:34;14.20;52.30
64209;DHT22;50527;52.414;13.226;2023-04-25T09:09:08;14.30;52.70
64209;DHT22;50527;52.414;13.226;2023-04-25T09:11:35;14.70;51.60
64209;DHT22;50527;52.414;13.226;2023-04-25T09:14:11;15.00;49.10
64209;DHT22;50527;52.414;13.226;2023-04-25T09:16:57;15.20;50.90
64209;DHT22;50527;52.414;13.226;2023-04-25T09:19:35;15.80;49.70
64209;DHT22;50527;52.414;13.226;2023-04-25T09:22:03;16.20;49.90
64209;DHT22;50527;52.414;13.226;2023-04-25T09:24:45;15.90;49.30
64209;DHT22;50527;52.414;13.226;2023-04-25T09:27:19;15.70;48.30
64209;DHT22;50527;52.414;13.226;2023-04-25T09:29:45;15.20;48.80
64209;DHT22;50527;52.414;13.226;2023-04-25T09:32:23;15.00;49.20
64209;DHT22;50527;52.414;13.226;2023-04-25T09:34:50;15.50;49.80
64209;DHT22;50527;52.414;13.226;2023-04-25T09:37:24;15.20;48.70
64209;DHT22;50527;52.414;13.226;2023-04-25T09:40:03;15.30;50.50
64209;DHT22;50527;52.414;13.226;2023-04-25T09:42:31;15.00;49.70
64209;DHT22;50527;52.414;13.226;2023-04-25T09:44:57;14.70;49.50
64209;DHT22;50527;52.414;13.226;2023-04-25T09:47:26;14.30;50.30
64209;DHT22;50527;52.414;13.226;2023-04-25T09:49:54;13.90;51.10
64209;DHT22;50527;52.414;13.226;2023-04-25T09:52:24;13.50;52.40
64209;DHT22;50527;52.414;13.226;2023-04-25T09:54:51;13.30;52.80
64209;DHT22;50527;52.414;13.226;2023-04-25T09:57:20;13.40;52.30
64209;DHT22;50527;52.414;13.226;2023-04-25T10:03:08;13.10;52.00
64209;DHT22;50527;52.414;13.226;2023-04-25T10:05:34;12.80;51.20
64209;DHT22;50527;52.414;13.226;2023-04-25T10:08:02;12.60;52.10
64209;DHT22;50527;52.414;13.226;2023-04-25T10:10:30;12.60;52.40
64209;DHT22;50527;52.414;13.226;2023-04-25T10:13:02;12.50;52.00
64209;DHT22;50527;52.414;13.226;2023-04-25T10:15:28;12.40;51.80
64209;DHT22;50527;52.414;13.226;2023-04-25T10:17:55;12.40;52.60
64209;DHT22;50527;52.414;13.226;2023-04-25T10:20:22;12.40;50.60
64209;DHT22;50527;52.414;13.226;2023-04-25T10:22:47;12.40;50.20
64209;DHT22;50527;52.414;13.226;2023-04-25T10:25:14;12.40;51.60
64209;DHT22;50527;52.414;13.226;2023-04-25T10:27:40;12.50;51.00
64209;DHT22;50527;52.414;13.226;2023-04-25T10:30:10;12.50;50.20
64209;DHT22;50527;52.414;13.226;2023-04-25T10:32:38;12.80;51.40
64209;DHT22;50527;52.414;13.226;2023-04-25T10:35:15;13.10;50.10
64209;DHT22;50527;52.414;13.226;2023-04-25T10:38:03;13.20;50.10
64209;DHT22;50527;52.414;13.226;2023-04-25T10:40:32;13.20;48.80
64209;DHT22;50527;52.414;13.226;2023-04-25T10:43:33;13.10;49.00
64209;DHT22;50527;52.414;13.226;2023-04-25T10:46:02;12.80;49.10
64209;DHT22;50527;52.414;13.226;2023-04-25T10:48:30;12.60;49.20
64209;DHT22;50527;52.414;13.226;2023-04-25T10:51:19;12.50;49.20
64209;DHT22;50527;52.414;13.226;2023-04-25T11:03:57;12.50;49.60
64209;DHT22;50527;52.414;13.226;2023-04-25T11:09:47;12.20;49.70
64209;DHT22;50527;52.414;13.226;2023-04-25T11:15:34;11.90;50.40
64209;DHT22;50527;52.414;13.226;2023-04-25T11:18:00;11.90;51.20
64209;DHT22;50527;52.414;13.226;2023-04-25T11:20:26;11.80;52.10
64209;DHT22;50527;52.414;13.226;2023-04-25T11:23:02;11.90;50.10
64209;DHT22;50527;52.414;13.226;2023-04-25T11:32:15;11.60;50.20
64209;DHT22;50527;52.414;13.226;2023-04-25T11:38:03;11.20;51.10
64209;DHT22;50527;52.414;13.226;2023-04-25T11:43:30;11.30;50.20
64209;DHT22;50527;52.414;13.226;2023-04-25T11:45:55;11.40;50.40
64209;DHT22;50527;52.414;13.226;2023-04-25T11:48:21;11.50;47.80
64209;DHT22;50527;52.414;13.226;2023-04-25T11:50:46;11.70;47.60
64209;DHT22;50527;52.414;13.226;2023-04-25T11:53:12;11.80;48.40
64209;DHT22;50527;52.414;13.226;2023-04-25T11:55:38;11.70;48.10
64209;DHT22;50527;52.414;13.226;2023-04-25T11:58:05;11.80;49.20
64209;DHT22;50527;52.414;13.226;2023-04-25T12:00:31;11.80;48.40
64209;DHT22;50527;52.414;13.226;2023-04-25T12:02:58;11.80;48.90
64209;DHT22;50527;52.414;13.226;2023-04-25T12:05:25;11.80;48.10
64209;DHT22;50527;52.414;13.226;2023-04-25T12:07:51;11.90;48.60
64209;DHT22;50527;52.414;13.226;2023-04-25T12:10:18;11.90;49.10
64209;DHT22;50527;52.414;13.226;2023-04-25T12:12:45;11.90;48.30
64209;DHT22;50527;52.414;13.226;2023-04-25T12:15:22;11.90;49.50
64209;DHT22;50527;52.414;13.226;2023-04-25T12:17:50;12.00;50.00
64209;DHT22;50527;52.414;13.226;2023-04-25T12:20:18;12.10;48.10
64209;DHT22;50527;52.414;13.226;2023-04-25T12:22:45;12.00;46.80
64209;DHT22;50527;52.414;13.226;2023-04-25T12:25:12;12.00;46.80
64209;DHT22;50527;52.414;13.226;2023-04-25T12:27:38;12.10;48.10
64209;DHT22;50527;52.414;13.226;2023-04-25T12:30:07;12.30;47.30
64209;DHT22;50527;52.414;13.226;2023-04-25T12:32:33;12.40;47.70
64209;DHT22;50527;52.414;13.226;2023-04-25T12:34:59;12.40;47.20
64209;DHT22;50527;52.414;13.226;2023-04-25T12:37:24;12.50;46.90
64209;DHT22;50527;52.414;13.226;2023-04-25T12:39:50;12.70;47.20
64209;DHT22;50527;52.414;13.226;2023-04-25T12:42:15;12.70;46.60
64209;DHT22;50527;52.414;13.226;2023-04-25T12:44:41;12.70;48.20
64209;DHT22;50527;52.414;13.226;2023-04-25T12:47:07;12.60;46.40
64209;DHT22;50527;52.414;13.226;2023-04-25T12:49:32;12.40;48.00
64209;DHT22;50527;52.414;13.226;2023-04-25T12:51:58;12.20;47.90
64209;DHT22;50527;52.414;13.226;2023-04-25T12:54:24;11.90;47.90
64209;DHT22;50527;52.414;13.226;2023-04-25T12:56:50;11.70;48.40
64209;DHT22;50527;52.414;13.226;2023-04-25T12:59:16;11.70;48.60
64209;DHT22;50527;52.414;13.226;2023-04-25T13:01:42;11.70;49.70
64209;DHT22;50527;52.414;13.226;2023-04-25T13:04:08;11.80;49.10
64209;DHT22;50527;52.414;13.226;2023-04-25T13:06:33;11.80;48.90
64209;DHT22;50527;52.414;13.226;2023-04-25T13:08:59;11.90;49.20
64209;DHT22;50527;52.414;13.226;2023-04-25T13:11:24;12.00;50.70
64209;DHT22;50527;52.414;13.226;2023-04-25T13:13:49;12.20;48.70
64209;DHT22;50527;52.414;13.226;2023-04-25T13:16:15;12.10;48.50
64209;DHT22;50527;52.414;13.226;2023-04-25T13:18:41;12.30;48.60
64209;DHT22;50527;52.414;13.226;2023-04-25T13:21:09;12.40;46.20
64209;DHT22;50527;52.414;13.226;2023-04-25T13:23:35;12.50;46.60
64209;DHT22;50527;52.414;13.226;2023-04-25T13:26:00;12.60;45.70
64209;DHT22;50527;52.414;13.226;2023-04-25T13:28:27;12.70;46.90
64209;DHT22;50527;52.414;13.226;2023-04-25T13:30:53;12.70;46.60
64209;DHT22;50527;52.414;13.226;2023-04-25T13:33:19;12.80;47.30
64209;DHT22;50527;52.414;13.226;2023-04-25T13:35:46;13.10;48.20
64209;DHT22;50527;52.414;13.226;2023-04-25T13:38:14;13.30;46.80
64209;DHT22;50527;52.414;13.226;2023-04-25T13:40:40;13.10;46.50
64209;DHT22;50527;52.414;13.226;2023-04-25T13:43:05;13.00;45.50
64209;DHT22;50527;52.414;13.226;2023-04-25T13:45:34;12.80;46.00
64209;DHT22;50527;52.414;13.226;2023-04-25T13:48:00;12.60;46.40
64209;DHT22;50527;52.414;13.226;2023-04-25T13:50:26;12.40;46.80
64209;DHT22;50527;52.414;13.226;2023-04-25T13:52:52;12.30;47.00
64209;DHT22;50527;52.414;13.226;2023-04-25T13:55:17;12.10;48.40
64209;DHT22;50527;52.414;13.226;2023-04-25T13:57:43;12.20;48.10
64209;DHT22;50527;52.414;13.226;2023-04-25T14:00:09;12.00;48.60
64209;DHT22;50527;52.414;13.226;2023-04-25T14:02:35;11.80;48.80
64209;DHT22;50527;52.414;13.226;2023-04-25T14:05:02;11.70;48.80
64209;DHT22;50527;52.414;13.226;2023-04-25T14:07:28;11.50;50.20
64209;DHT22;50527;52.414;13.226;2023-04-25T14:09:53;11.40;50.70
64209;DHT22;50527;52.414;13.226;2023-04-25T14:12:19;11.10;50.70
64209;DHT22;50527;52.414;13.226;2023-04-25T14:14:44;11.00;51.50
64209;DHT22;50527;52.414;13.226;2023-04-25T14:17:11;11.00;51.90
64209;DHT22;50527;52.414;13.226;2023-04-25T14:19:37;11.00;52.80
64209;DHT22;50527;52.414;13.226;2023-04-25T14:22:03;11.00;51.90
64209;DHT22;50527;52.414;13.226;2023-04-25T14:24:29;11.00;52.80
64209;DHT22;50527;52.414;13.226;2023-04-25T14:26:54;10.90;53.50
64209;DHT22;50527;52.414;13.226;2023-04-25T14:29:20;10.90;52.80
64209;DHT22;50527;52.414;13.226;2023-04-25T14:31:46;10.80;53.50
64209;DHT22;50527;52.414;13.226;2023-04-25T14:34:12;10.90;53.70
64209;DHT22;50527;52.414;13.226;2023-04-25T14:36:37;11.00;54.00
64209;DHT22;50527;52.414;13.226;2023-04-25T14:39:04;11.00;53.50
64209;DHT22;50527;52.414;13.226;2023-04-25T14:41:30;11.10;53.50
64209;DHT22;50527;52.414;13.226;2023-04-25T14:43:56;11.20;52.90
64209;DHT22;50527;52.414;13.226;2023-04-25T14:46:22;11.30;53.20
64209;DHT22;50527;52.414;13.226;2023-04-25T14:48:48;11.40;53.00
64209;DHT22;50527;52.414;13.226;2023-04-25T14:51:14;11.50;52.00
64209;DHT22;50527;52.414;13.226;2023-04-25T14:53:40;11.60;52.30
64209;DHT22;50527;52.414;13.226;2023-04-25T14:56:06;11.60;52.70
64209;DHT22;50527;52.414;13.226;2023-04-25T14:58:32;11.60;53.20
64209;DHT22;50527;52.414;13.226;2023-04-25T15:00:58;11.60;52.30
64209;DHT22;50527;52.414;13.226;2023-04-25T15:03:24;11.60;51.20
64209;DHT22;50527;52.414;13.226;2023-04-25T15:05:49;11.40;52.00
64209;DHT22;50527;52.414;13.226;2023-04-25T15:08:15;11.30;52.20
64209;DHT22;50527;52.414;13.226;2023-04-25T15:10:40;11.30;53.50
64209;DHT22;50527;52.414;13.226;2023-04-25T15:13:06;11.30;53.90
64209;DHT22;50527;52.414;13.226;2023-04-25T15:15:31;11.40;53.40
64209;DHT22;50527;52.414;13.226;2023-04-25T15:17:57;11.30;53.80
64209;DHT22;50527;52.414;13.226;2023-04-25T15:20:23;11.40;54.20
64209;DHT22;50527;52.414;13.226;2023-04-25T15:22:48;11.40;55.00
64209;DHT22;50527;52.414;13.226;2023-04-25T15:25:15;11.50;54.30
64209;DHT22;50527;52.414;13.226;2023-04-25T15:27:43;11.50;53.50
64209;DHT22;50527;52.414;13.226;2023-04-25T15:30:11;11.40;53.80
64209;DHT22;50527;52.414;13.226;2023-04-25T15:32:37;11.40;54.30
64209;DHT22;50527;52.414;13.226;2023-04-25T15:35:05;11.40;54.30
64209;DHT22;50527;52.414;13.226;2023-04-25T15:37:31;11.40;54.40
64209;DHT22;50527;52.414;13.226;2023-04-25T15:40:08;11.40;53.80
64209;DHT22;50527;52.414;13.226;2023-04-25T15:42:35;11.50;53.60
64209;DHT22;50527;52.414;13.226;2023-04-25T15:45:04;11.40;54.30
64209;DHT22;50527;52.414;13.226;2023-04-25T15:47:29;11.40;53.60
64209;DHT22;50527;52.414;13.226;2023-04-25T15:49:55;11.40;53.60
64209;DHT22;50527;52.414;13.226;2023-04-25T15:52:20;11.40;52.70